createdAt,value
2023-04-18T00:00:06.490Z,71.66
2023-04-18T00:01:05.663Z,71.76
2023-04-18T00:02:05.977Z,71.86
2023-04-18T00:03:06.415Z,71.55
2023-04-18T00:04:07.523Z,71.55
2023-04-18T00:05:05.659Z,71.55
2023-04-18T00:06:06.366Z,71.66
2023-04-18T00:07:06.125Z,71.59
2023-04-18T00:08:06.346Z,71.69
2023-04-18T00:09:08.744Z,71.59
2023-04-18T00:10:05.798Z,71.79
2023-04-18T00:11:07.044Z,71.89
2023-04-18T00:12:06.332Z,72.10
2023-04-18T00:13:05.531Z,72.10
2023-04-18T00:14:05.742Z,72.31
2023-04-18T00:15:06.050Z,72.34
2023-04-18T00:16:06.345Z,72.34
2023-04-18T00:17:05.634Z,72.44
2023-04-18T00:18:06.706Z,72.55
2023-04-18T00:19:06.044Z,72.55
2023-04-18T00:20:06.283Z,72.65
2023-04-18T00:21:05.498Z,72.89
2023-04-18T00:22:05.739Z,72.99
2023-04-18T00:23:06.001Z,72.99
2023-04-18T00:24:06.361Z,72.99
2023-04-18T00:25:05.627Z,72.99
2023-04-18T00:26:05.720Z,73.09
2023-04-18T00:27:05.964Z,73.19
2023-04-18T00:28:06.314Z,73.30
2023-04-18T00:29:05.415Z,73.30
2023-04-18T00:30:06.468Z,73.40
2023-04-18T00:31:05.952Z,73.40
2023-04-18T00:32:07.134Z,73.50
2023-04-18T00:33:05.445Z,73.44
2023-04-18T00:34:05.704Z,73.54
2023-04-18T00:35:05.919Z,73.64
2023-04-18T00:36:06.611Z,73.74
2023-04-18T00:37:05.377Z,73.74
2023-04-18T00:38:05.680Z,73.85
2023-04-18T00:39:05.904Z,73.85
2023-04-18T00:40:05.085Z,73.95
2023-04-18T00:41:05.355Z,74.05
2023-04-18T00:42:06.366Z,74.26
2023-04-18T00:43:05.804Z,74.15
2023-04-18T00:44:05.011Z,74.15
2023-04-18T00:45:05.314Z,74.29
2023-04-18T00:46:05.586Z,74.40
2023-04-18T00:47:05.746Z,74.60
2023-04-18T00:48:06.419Z,74.60
2023-04-18T00:49:05.199Z,74.70
2023-04-18T00:50:05.424Z,74.91
2023-04-18T00:51:05.663Z,75.12
2023-04-18T00:52:05.919Z,75.35
2023-04-18T00:53:05.102Z,75.35
2023-04-18T00:54:06.334Z,75.46
2023-04-18T00:55:05.599Z,75.56
2023-04-18T00:56:05.869Z,75.67
2023-04-18T00:57:05.064Z,75.77
2023-04-18T00:58:05.374Z,75.87
2023-04-18T00:59:06.541Z,76.07
2023-04-18T01:00:06.384Z,76.07
2023-04-18T01:01:06.013Z,76.07
2023-04-18T01:02:06.330Z,76.21
2023-04-18T01:03:06.685Z,76.32
2023-04-18T01:04:05.823Z,76.42
2023-04-18T01:05:04.934Z,76.53
2023-04-18T01:06:06.359Z,76.63
2023-04-18T01:07:05.473Z,76.73
2023-04-18T01:08:05.708Z,76.73
2023-04-18T01:09:04.939Z,76.83
2023-04-18T01:10:05.227Z,76.93
2023-04-18T01:11:06.409Z,76.93
2023-04-18T01:12:06.433Z,76.93
2023-04-18T01:13:04.974Z,77.04
2023-04-18T01:14:05.188Z,77.14
2023-04-18T01:15:05.439Z,77.14
2023-04-18T01:16:04.687Z,77.28
2023-04-18T01:17:04.916Z,77.38
2023-04-18T01:18:06.808Z,77.38
2023-04-18T01:19:05.449Z,77.48
2023-04-18T01:20:04.632Z,77.80
2023-04-18T01:21:04.885Z,77.80
2023-04-18T01:22:05.168Z,77.69
2023-04-18T01:23:05.433Z,77.59
2023-04-18T01:24:06.443Z,77.66
2023-04-18T01:25:04.884Z,77.55
2023-04-18T01:26:05.124Z,77.45
2023-04-18T01:27:05.501Z,77.35
2023-04-18T01:28:04.647Z,77.48
2023-04-18T01:29:04.836Z,77.48
2023-04-18T01:30:06.350Z,77.59
2023-04-18T01:31:05.404Z,77.69
2023-04-18T01:32:05.564Z,77.80
2023-04-18T01:33:05.866Z,77.80
2023-04-18T01:34:05.077Z,77.90
2023-04-18T01:35:05.365Z,77.90
2023-04-18T01:36:06.789Z,77.90
2023-04-18T01:37:04.827Z,78.21
2023-04-18T01:38:05.095Z,78.00
2023-04-18T01:39:05.314Z,77.90
2023-04-18T01:40:04.569Z,77.90
2023-04-18T01:41:04.790Z,77.80
2023-04-18T01:42:06.465Z,78.00
2023-04-18T01:43:04.239Z,77.90
2023-04-18T01:44:04.514Z,77.80
2023-04-18T01:45:04.770Z,77.80
2023-04-18T01:46:05.030Z,77.90
2023-04-18T01:47:04.249Z,77.80
2023-04-18T01:48:06.357Z,77.69
2023-04-18T01:49:04.793Z,77.69
2023-04-18T01:50:05.026Z,77.69
2023-04-18T01:51:04.227Z,77.59
2023-04-18T01:52:04.520Z,77.62
2023-04-18T01:53:05.722Z,77.80
2023-04-18T01:54:06.971Z,77.80
2023-04-18T01:55:04.259Z,77.73
2023-04-18T01:56:04.548Z,77.83
2023-04-18T01:57:04.778Z,77.83
2023-04-18T01:58:05.061Z,77.83
2023-04-18T01:59:04.298Z,77.94
2023-04-18T02:00:06.493Z,78.04
2023-04-18T02:01:04.926Z,78.14
2023-04-18T02:02:05.088Z,78.24
2023-04-18T02:03:04.308Z,78.24
2023-04-18T02:04:05.479Z,78.38
2023-04-18T02:05:05.697Z,78.38
2023-04-18T02:06:04.050Z,78.49
2023-04-18T02:07:04.046Z,78.59
2023-04-18T02:08:04.319Z,78.49
2023-04-18T02:09:04.499Z,78.59
2023-04-18T02:10:04.726Z,78.59
2023-04-18T02:11:03.884Z,78.59
2023-04-18T02:12:06.348Z,78.38
2023-04-18T02:13:04.331Z,78.38
2023-04-18T02:14:05.495Z,78.49
2023-04-18T02:15:04.745Z,78.69
2023-04-18T02:16:04.011Z,78.80
2023-04-18T02:17:04.170Z,78.80
2023-04-18T02:18:06.891Z,78.59
2023-04-18T02:19:04.664Z,78.59
2023-04-18T02:20:03.943Z,78.49
2023-04-18T02:21:04.142Z,78.63
2023-04-18T02:22:04.368Z,78.63
2023-04-18T02:23:04.597Z,78.63
2023-04-18T02:24:03.931Z,78.63
2023-04-18T02:25:04.071Z,78.63
2023-04-18T02:26:04.282Z,78.63
2023-04-18T02:27:04.510Z,78.52
2023-04-18T02:28:03.754Z,78.52
2023-04-18T02:29:04.028Z,78.63
2023-04-18T02:30:04.275Z,78.63
2023-04-18T02:31:04.479Z,78.63
2023-04-18T02:32:03.746Z,78.63
2023-04-18T02:33:03.953Z,78.73
2023-04-18T02:34:05.100Z,78.63
2023-04-18T02:35:06.482Z,78.42
2023-04-18T02:36:03.596Z,78.31
2023-04-18T02:37:03.871Z,78.31
2023-04-18T02:38:05.087Z,78.31
2023-04-18T02:39:05.328Z,78.31
2023-04-18T02:40:04.533Z,78.42
2023-04-18T02:41:03.873Z,78.42
2023-04-18T02:42:04.073Z,78.52
2023-04-18T02:43:04.338Z,78.83
2023-04-18T02:44:03.576Z,78.97
2023-04-18T02:45:04.799Z,79.28
2023-04-18T02:46:04.158Z,79.38
2023-04-18T02:47:03.517Z,79.59
2023-04-18T02:48:04.741Z,79.69
2023-04-18T02:49:04.990Z,79.90
2023-04-18T02:50:05.194Z,80.00
2023-04-18T02:51:03.449Z,80.00
2023-04-18T02:52:03.708Z,80.21
2023-04-18T02:53:03.883Z,80.32
2023-04-18T02:54:04.147Z,80.52
2023-04-18T02:55:03.322Z,80.56
2023-04-18T02:56:03.550Z,80.66
2023-04-18T02:57:03.810Z,80.87
2023-04-18T02:58:04.066Z,81.07
2023-04-18T02:59:03.244Z,81.28
2023-04-18T03:00:03.452Z,81.38
2023-04-18T03:01:03.722Z,81.38
2023-04-18T03:02:03.942Z,81.49
2023-04-18T03:03:04.264Z,81.59
2023-04-18T03:04:03.396Z,81.70
2023-04-18T03:05:03.735Z,81.70
2023-04-18T03:06:03.850Z,81.70
2023-04-18T03:07:03.305Z,81.80
2023-04-18T03:08:03.484Z,81.80
2023-04-18T03:09:03.845Z,81.70
2023-04-18T03:10:05.005Z,81.84
2023-04-18T03:11:03.194Z,81.84
2023-04-18T03:12:04.469Z,81.84
2023-04-18T03:13:03.769Z,81.94
2023-04-18T03:14:04.014Z,81.94
2023-04-18T03:15:03.137Z,81.94
2023-04-18T03:16:03.433Z,81.94
2023-04-18T03:17:03.646Z,82.04
2023-04-18T03:18:04.928Z,82.04
2023-04-18T03:19:03.082Z,81.94
2023-04-18T03:20:03.387Z,82.04
2023-04-18T03:21:03.613Z,82.15
2023-04-18T03:22:03.856Z,82.15
2023-04-18T03:23:03.058Z,82.15
2023-04-18T03:24:03.320Z,82.15
2023-04-18T03:25:03.589Z,82.15
2023-04-18T03:26:03.828Z,82.25
2023-04-18T03:27:03.086Z,82.25
2023-04-18T03:28:03.291Z,82.25
2023-04-18T03:29:03.566Z,82.35
2023-04-18T03:30:03.827Z,82.35
2023-04-18T03:31:03.231Z,82.25
2023-04-18T03:32:04.321Z,82.39
2023-04-18T03:33:03.622Z,82.25
2023-04-18T03:34:02.816Z,82.18
2023-04-18T03:35:03.096Z,82.18
2023-04-18T03:36:03.438Z,82.18
2023-04-18T03:37:03.636Z,82.29
2023-04-18T03:38:03.808Z,82.15
2023-04-18T03:39:03.095Z,82.18
2023-04-18T03:40:03.367Z,82.04
2023-04-18T03:41:03.642Z,81.98
2023-04-18T03:42:02.857Z,81.84
2023-04-18T03:43:04.041Z,81.73
2023-04-18T03:44:03.376Z,81.63
2023-04-18T03:45:03.620Z,81.52
2023-04-18T03:46:02.978Z,81.56
2023-04-18T03:47:03.142Z,81.67
2023-04-18T03:48:03.482Z,81.73
2023-04-18T03:49:02.586Z,81.52
2023-04-18T03:50:02.865Z,81.46
2023-04-18T03:51:03.143Z,81.46
2023-04-18T03:52:03.444Z,81.46
2023-04-18T03:53:02.598Z,81.46
2023-04-18T03:54:02.865Z,81.67
2023-04-18T03:55:04.039Z,81.77
2023-04-18T03:56:04.296Z,81.87
2023-04-18T03:57:03.508Z,81.98
2023-04-18T03:58:03.108Z,82.08
2023-04-18T03:59:04.036Z,82.18
2023-04-18T04:00:04.294Z,82.18
2023-04-18T04:01:03.502Z,82.18
2023-04-18T04:02:03.899Z,82.18
2023-04-18T04:03:04.292Z,82.29
2023-04-18T04:04:03.419Z,82.29
2023-04-18T04:05:02.818Z,82.29
2023-04-18T04:06:02.835Z,82.39
2023-04-18T04:07:03.124Z,82.43
2023-04-18T04:08:02.353Z,82.53
2023-04-18T04:09:02.565Z,82.53
2023-04-18T04:10:02.879Z,82.43
2023-04-18T04:11:03.114Z,82.53
2023-04-18T04:12:03.294Z,82.64
2023-04-18T04:13:02.557Z,82.64
2023-04-18T04:14:02.805Z,82.74
2023-04-18T04:15:03.121Z,82.74
2023-04-18T04:16:02.341Z,82.88
2023-04-18T04:17:02.573Z,82.98
2023-04-18T04:18:03.858Z,83.09
2023-04-18T04:19:03.131Z,83.19
2023-04-18T04:20:03.286Z,83.40
2023-04-18T04:21:02.688Z,83.50
2023-04-18T04:22:02.888Z,83.50
2023-04-18T04:23:04.094Z,83.61
2023-04-18T04:24:02.350Z,83.61
2023-04-18T04:25:02.618Z,83.61
2023-04-18T04:26:02.896Z,83.71
2023-04-18T04:27:02.118Z,83.81
2023-04-18T04:28:03.328Z,83.91
2023-04-18T04:29:02.624Z,84.01
2023-04-18T04:30:03.927Z,84.12
2023-04-18T04:31:02.149Z,84.12
2023-04-18T04:32:02.501Z,84.22
2023-04-18T04:33:03.688Z,84.12
2023-04-18T04:34:02.977Z,84.22
2023-04-18T04:35:02.205Z,84.12
2023-04-18T04:36:02.534Z,84.12
2023-04-18T04:37:02.832Z,84.12
2023-04-18T04:38:02.038Z,84.22
2023-04-18T04:39:02.320Z,84.22
2023-04-18T04:40:02.587Z,84.22
2023-04-18T04:41:02.887Z,84.43
2023-04-18T04:42:02.105Z,84.53
2023-04-18T04:43:02.476Z,84.64
2023-04-18T04:44:02.635Z,84.74
2023-04-18T04:45:02.853Z,84.95
2023-04-18T04:46:02.128Z,84.95
2023-04-18T04:47:02.405Z,84.95
2023-04-18T04:48:02.728Z,85.05
2023-04-18T04:49:01.922Z,85.05
2023-04-18T04:50:02.186Z,85.26
2023-04-18T04:51:02.454Z,85.36
2023-04-18T04:52:02.726Z,85.36
2023-04-18T04:53:01.947Z,85.26
2023-04-18T04:54:02.274Z,85.36
2023-04-18T04:55:02.485Z,85.36
2023-04-18T04:56:01.775Z,85.36
2023-04-18T04:57:02.000Z,85.36
2023-04-18T04:58:02.268Z,85.47
2023-04-18T04:59:02.976Z,85.47
2023-04-18T05:00:01.756Z,85.36
2023-04-18T05:01:02.106Z,85.36
2023-04-18T05:02:02.427Z,85.36
2023-04-18T05:03:02.739Z,85.47
2023-04-18T05:04:02.866Z,85.32
2023-04-18T05:05:02.053Z,85.36
2023-04-18T05:06:03.258Z,85.47
2023-04-18T05:07:02.493Z,85.53
2023-04-18T05:08:01.814Z,85.57
2023-04-18T05:09:02.069Z,85.78
2023-04-18T05:10:02.846Z,85.78
2023-04-18T05:11:02.596Z,85.99
2023-04-18T05:12:01.888Z,86.09
2023-04-18T05:13:02.097Z,86.19
2023-04-18T05:14:02.380Z,86.29
2023-04-18T05:15:01.613Z,86.40
2023-04-18T05:16:02.299Z,86.40
2023-04-18T05:17:02.319Z,86.50
2023-04-18T05:18:02.420Z,86.60
2023-04-18T05:19:01.625Z,86.71
2023-04-18T05:20:01.903Z,86.91
2023-04-18T05:21:02.177Z,86.91
2023-04-18T05:22:01.434Z,87.02
2023-04-18T05:23:01.661Z,87.12
2023-04-18T05:24:02.884Z,87.12
2023-04-18T05:25:02.286Z,87.12
2023-04-18T05:26:01.463Z,87.18
2023-04-18T05:27:01.733Z,87.18
2023-04-18T05:28:01.997Z,87.18
2023-04-18T05:29:01.244Z,87.18
2023-04-18T05:30:01.515Z,87.18
2023-04-18T05:31:01.913Z,86.98
2023-04-18T05:32:02.069Z,86.98
2023-04-18T05:33:01.371Z,87.08
2023-04-18T05:34:01.600Z,87.18
2023-04-18T05:35:01.846Z,87.29
2023-04-18T05:36:02.184Z,87.39
2023-04-18T05:37:01.445Z,87.60
2023-04-18T05:38:01.711Z,87.70
2023-04-18T05:39:02.881Z,87.70
2023-04-18T05:40:02.106Z,87.66
2023-04-18T05:41:02.397Z,87.56
2023-04-18T05:42:01.737Z,87.56
2023-04-18T05:43:02.096Z,87.56
2023-04-18T05:44:05.337Z,87.56
2023-04-18T05:45:01.569Z,87.46
2023-04-18T05:46:02.797Z,87.35
2023-04-18T05:47:01.998Z,87.35
2023-04-18T05:48:01.398Z,87.46
2023-04-18T05:49:01.731Z,87.76
2023-04-18T05:50:02.831Z,87.66
2023-04-18T05:51:02.056Z,87.66
2023-04-18T05:52:02.395Z,87.66
2023-04-18T05:53:02.641Z,87.56
2023-04-18T05:54:01.902Z,87.62
2023-04-18T05:55:01.353Z,87.62
2023-04-18T05:56:02.469Z,87.62
2023-04-18T05:57:03.879Z,87.52
2023-04-18T05:58:01.954Z,87.48
2023-04-18T05:59:01.263Z,87.37
2023-04-18T06:00:01.946Z,87.37
2023-04-18T06:01:02.777Z,87.37
2023-04-18T06:02:02.091Z,87.48
2023-04-18T06:03:02.513Z,87.27
2023-04-18T06:04:02.736Z,87.17
2023-04-18T06:05:02.010Z,87.17
2023-04-18T06:06:01.250Z,87.07
2023-04-18T06:07:01.349Z,86.92
2023-04-18T06:08:01.622Z,86.92
2023-04-18T06:09:00.839Z,86.92
2023-04-18T06:10:01.121Z,86.92
2023-04-18T06:11:01.449Z,86.92
2023-04-18T06:12:01.706Z,86.92
2023-04-18T06:13:00.881Z,86.92
2023-04-18T06:14:02.236Z,86.92
2023-04-18T06:15:02.392Z,86.92
2023-04-18T06:16:01.671Z,86.61
2023-04-18T06:17:01.312Z,86.47
2023-04-18T06:18:01.188Z,86.41
2023-04-18T06:19:02.438Z,86.26
2023-04-18T06:20:00.654Z,86.05
2023-04-18T06:21:00.916Z,85.95
2023-04-18T06:22:02.173Z,85.85
2023-04-18T06:23:01.509Z,85.64
2023-04-18T06:24:00.744Z,85.54
2023-04-18T06:25:01.981Z,85.54
2023-04-18T06:26:01.254Z,85.54
2023-04-18T06:27:01.437Z,85.50
2023-04-18T06:28:00.759Z,85.60
2023-04-18T06:29:01.421Z,85.39
2023-04-18T06:30:01.292Z,85.19
2023-04-18T06:31:00.521Z,85.19
2023-04-18T06:32:00.936Z,85.19
2023-04-18T06:33:01.066Z,85.09
2023-04-18T06:34:01.285Z,84.78
2023-04-18T06:35:00.489Z,84.78
2023-04-18T06:36:01.487Z,84.78
2023-04-18T06:37:00.737Z,84.78
2023-04-18T06:38:01.964Z,84.88
2023-04-18T06:39:02.236Z,84.78
2023-04-18T06:40:00.804Z,84.78
2023-04-18T06:41:01.733Z,84.78
2023-04-18T06:42:01.967Z,84.88
2023-04-18T06:43:01.240Z,84.78
2023-04-18T06:44:04.099Z,84.88
2023-04-18T06:45:00.747Z,84.78
2023-04-18T06:46:01.119Z,84.99
2023-04-18T06:47:00.196Z,85.30
2023-04-18T06:48:00.463Z,85.50
2023-04-18T06:49:00.716Z,85.71
2023-04-18T06:50:02.030Z,85.57
2023-04-18T06:51:00.192Z,85.57
2023-04-18T06:52:00.486Z,85.57
2023-04-18T06:53:00.726Z,85.15
2023-04-18T06:54:01.924Z,85.05
2023-04-18T06:55:01.170Z,84.91
2023-04-18T06:56:01.449Z,84.80
2023-04-18T06:57:00.805Z,84.80
2023-04-18T06:58:01.091Z,84.70
2023-04-18T06:59:00.308Z,84.56
2023-04-18T07:00:00.588Z,84.14
2023-04-18T07:01:00.994Z,83.84
2023-04-18T07:02:00.168Z,83.84
2023-04-18T07:03:00.596Z,83.42
2023-04-18T07:04:01.629Z,82.87
2023-04-18T07:05:01.903Z,83.07
2023-04-18T07:06:00.140Z,83.49
2023-04-18T07:07:01.317Z,83.39
2023-04-18T07:08:00.666Z,83.28
2023-04-18T07:09:00.904Z,82.97
2023-04-18T07:10:00.164Z,82.35
2023-04-18T07:11:01.369Z,82.46
2023-04-18T07:12:00.720Z,82.67
2023-04-18T07:12:59.943Z,82.25
2023-04-18T07:14:01.209Z,82.35
2023-04-18T07:15:00.580Z,82.32
2023-04-18T07:16:00.781Z,82.01
2023-04-18T07:17:00.008Z,82.11
2023-04-18T07:18:00.308Z,82.21
2023-04-18T07:19:00.596Z,82.21
2023-04-18T07:19:59.769Z,81.60
2023-04-18T07:21:00.062Z,81.60
2023-04-18T07:22:05.293Z,81.81
2023-04-18T07:23:00.548Z,82.01
2023-04-18T07:24:00.790Z,81.91
2023-04-18T07:25:01.049Z,81.87
2023-04-18T07:26:00.272Z,81.76
2023-04-18T07:27:00.567Z,81.67
2023-04-18T07:27:59.762Z,81.35
2023-04-18T07:29:00.009Z,81.05
2023-04-18T07:30:00.300Z,80.74
2023-04-18T07:31:00.585Z,80.91
2023-04-18T07:31:59.727Z,80.91
2023-04-18T07:33:00.056Z,80.91
2023-04-18T07:34:01.221Z,81.11
2023-04-18T07:35:00.510Z,80.80
2023-04-18T07:36:00.758Z,80.29
2023-04-18T07:37:00.923Z,80.29
2023-04-18T07:38:01.187Z,80.08
2023-04-18T07:39:01.433Z,79.88
2023-04-18T07:40:00.663Z,79.94
2023-04-18T07:41:00.928Z,79.94
2023-04-18T07:42:01.162Z,79.74
2023-04-18T07:43:00.472Z,79.63
2023-04-18T07:44:00.671Z,79.22
2023-04-18T07:45:01.042Z,79.22
2023-04-18T07:46:01.347Z,79.39
2023-04-18T07:46:59.533Z,79.19
2023-04-18T07:47:59.870Z,78.88
2023-04-18T07:49:01.048Z,78.78
2023-04-18T07:50:01.306Z,78.88
2023-04-18T07:51:00.507Z,79.08
2023-04-18T07:52:00.825Z,78.88
2023-04-18T07:53:00.087Z,78.64
2023-04-18T07:53:59.341Z,78.94
2023-04-18T07:54:59.586Z,78.53
2023-04-18T07:56:00.808Z,78.23
2023-04-18T07:57:00.185Z,77.61
2023-04-18T07:57:59.359Z,77.51
2023-04-18T07:59:00.547Z,78.02
2023-04-18T07:59:59.827Z,78.23
2023-04-18T08:01:01.049Z,78.12
2023-04-18T08:02:00.358Z,77.51
2023-04-18T08:03:00.770Z,77.81
2023-04-18T08:04:01.007Z,78.23
2023-04-18T08:05:00.225Z,78.29
2023-04-18T08:06:00.254Z,78.50
2023-04-18T08:07:01.442Z,78.50
2023-04-18T08:07:59.803Z,78.29
2023-04-18T08:09:01.008Z,78.29
2023-04-18T08:10:00.215Z,78.29
2023-04-18T08:11:00.559Z,77.68
2023-04-18T08:12:00.733Z,77.88
2023-04-18T08:13:00.066Z,77.47
2023-04-18T08:13:59.268Z,77.78
2023-04-18T08:14:59.498Z,77.98
2023-04-18T08:16:00.803Z,78.36
2023-04-18T08:17:00.006Z,77.74
2023-04-18T08:17:59.247Z,77.33
2023-04-18T08:19:00.567Z,77.95
2023-04-18T08:19:59.751Z,77.74
2023-04-18T08:20:59.965Z,77.54
2023-04-18T08:21:59.189Z,77.13
2023-04-18T08:23:06.271Z,77.74
2023-04-18T08:24:00.873Z,77.54
2023-04-18T08:25:04.825Z,77.40
2023-04-18T08:26:00.166Z,76.78
2023-04-18T08:27:00.344Z,75.96
2023-04-18T08:27:59.616Z,75.15
2023-04-18T08:28:59.869Z,75.45
2023-04-18T08:30:00.068Z,75.45
2023-04-18T08:31:00.287Z,75.56
2023-04-18T08:31:59.617Z,75.45
2023-04-18T08:32:59.865Z,75.35
2023-04-18T08:33:59.997Z,75.24
2023-04-18T08:35:00.245Z,75.31
2023-04-18T08:35:59.542Z,75.73
2023-04-18T08:37:00.707Z,75.31
2023-04-18T08:37:59.947Z,74.90
2023-04-18T08:39:00.168Z,75.21
2023-04-18T08:39:59.507Z,75.01
2023-04-18T08:40:59.699Z,74.90
2023-04-18T08:41:58.923Z,74.70
2023-04-18T08:43:00.153Z,74.39
2023-04-18T08:44:00.394Z,74.70
2023-04-18T08:44:59.659Z,74.80
2023-04-18T08:45:58.933Z,75.11
2023-04-18T08:46:59.086Z,75.31
2023-04-18T08:47:59.333Z,75.01
2023-04-18T08:49:00.534Z,74.80
2023-04-18T08:50:00.756Z,74.80
2023-04-18T08:50:59.084Z,74.46
2023-04-18T08:51:59.261Z,74.15
2023-04-18T08:52:59.487Z,74.15
2023-04-18T08:53:58.708Z,74.36
2023-04-18T08:54:59.929Z,74.15
2023-04-18T08:56:00.182Z,74.05
2023-04-18T08:57:00.431Z,74.77
2023-04-18T08:57:58.677Z,74.97
2023-04-18T08:58:58.871Z,73.85
2023-04-18T08:59:59.116Z,73.33
2023-04-18T09:00:59.589Z,73.33
2023-04-18T09:01:58.571Z,73.33
2023-04-18T09:02:59.839Z,73.13
2023-04-18T09:03:59.990Z,72.92
2023-04-18T09:04:59.299Z,73.03
2023-04-18T09:05:59.469Z,73.13
2023-04-18T09:06:58.925Z,73.03
2023-04-18T09:07:59.048Z,73.23
2023-04-18T09:09:00.241Z,73.03
2023-04-18T09:09:59.443Z,73.03
2023-04-18T09:10:59.683Z,72.52
2023-04-18T09:11:59.901Z,72.52
2023-04-18T09:12:59.187Z,73.20
2023-04-18T09:13:59.384Z,73.20
2023-04-18T09:14:58.672Z,72.89
2023-04-18T09:15:59.876Z,72.99
2023-04-18T09:16:59.192Z,73.40
2023-04-18T09:17:58.569Z,73.10
2023-04-18T09:18:59.576Z,73.71
2023-04-18T09:19:58.802Z,74.19
2023-04-18T09:20:59.055Z,73.88
2023-04-18T09:21:59.245Z,73.85
2023-04-18T09:22:59.419Z,73.94
2023-04-18T09:23:58.695Z,74.02
2023-04-18T09:24:58.886Z,74.84
2023-04-18T09:25:58.089Z,73.98
2023-04-18T09:26:58.356Z,71.63
2023-04-18T09:27:59.522Z,70.51
2023-04-18T09:28:58.840Z,71.22
2023-04-18T09:29:59.960Z,71.56
2023-04-18T09:30:59.247Z,71.46
2023-04-18T09:31:58.477Z,70.64
2023-04-18T09:32:59.149Z,70.34
2023-04-18T09:33:59.883Z,70.43
2023-04-18T09:34:59.482Z,70.95
2023-04-18T09:35:59.338Z,70.64
2023-04-18T09:36:58.812Z,70.81
2023-04-18T09:37:59.786Z,71.33
2023-04-18T09:38:58.041Z,71.12
2023-04-18T09:39:59.370Z,71.59
2023-04-18T09:40:59.420Z,72.38
2023-04-18T09:41:59.691Z,73.10
2023-04-18T09:42:57.884Z,72.24
2023-04-18T09:43:58.086Z,69.90
2023-04-18T09:44:59.343Z,69.32
2023-04-18T09:45:59.586Z,69.32
2023-04-18T09:46:58.784Z,69.62
2023-04-18T09:47:58.001Z,69.82
2023-04-18T09:48:59.127Z,69.42
2023-04-18T09:49:58.397Z,69.21
2023-04-18T09:50:58.628Z,70.23
2023-04-18T09:51:57.830Z,69.93
2023-04-18T09:52:59.000Z,69.62
2023-04-18T09:53:59.214Z,69.82
2023-04-18T09:54:59.461Z,69.62
2023-04-18T09:55:58.687Z,69.82
2023-04-18T09:56:58.857Z,69.93
2023-04-18T09:57:58.125Z,69.73
2023-04-18T09:58:58.333Z,69.52
2023-04-18T09:59:58.640Z,69.52
2023-04-18T10:00:57.777Z,69.93
2023-04-18T10:01:59.138Z,70.14
2023-04-18T10:02:59.352Z,69.93
2023-04-18T10:03:59.478Z,70.10
2023-04-18T10:04:57.685Z,69.69
2023-04-18T10:05:58.059Z,70.10
2023-04-18T10:06:58.127Z,70.61
2023-04-18T10:07:58.292Z,70.20
2023-04-18T10:08:59.465Z,70.20
2023-04-18T10:09:58.645Z,69.79
2023-04-18T10:10:58.948Z,69.69
2023-04-18T10:11:58.206Z,69.49
2023-04-18T10:12:59.383Z,69.90
2023-04-18T10:13:57.647Z,69.90
2023-04-18T10:14:58.790Z,70.20
2023-04-18T10:15:59.059Z,70.92
2023-04-18T10:16:59.237Z,70.20
2023-04-18T10:18:57.698Z,70.81
2023-04-18T10:19:57.927Z,70.98
2023-04-18T10:20:58.125Z,70.98
2023-04-18T10:21:58.326Z,70.17
2023-04-18T10:22:57.563Z,70.27
2023-04-18T10:23:57.693Z,70.48
2023-04-18T10:24:58.874Z,70.78
2023-04-18T10:25:58.124Z,70.27
2023-04-18T10:26:57.315Z,70.27
2023-04-18T10:27:58.502Z,70.48
2023-04-18T10:28:57.765Z,70.65
2023-04-18T10:29:58.979Z,70.95
2023-04-18T10:30:58.194Z,70.14
2023-04-18T10:31:57.506Z,70.65
2023-04-18T10:32:58.728Z,70.65
2023-04-18T10:34:58.995Z,70.44
2023-04-18T10:35:58.236Z,70.85
2023-04-18T10:36:58.397Z,70.34
2023-04-18T10:37:58.586Z,70.14
2023-04-18T10:38:58.836Z,70.00
2023-04-18T10:39:59.045Z,70.00
2023-04-18T10:40:58.255Z,70.00
2023-04-18T10:41:58.377Z,69.80
2023-04-18T10:42:58.630Z,69.93
2023-04-18T10:43:57.869Z,69.83
2023-04-18T10:44:57.060Z,70.14
2023-04-18T10:45:58.265Z,70.24
2023-04-18T10:46:58.456Z,70.85
2023-04-18T10:47:58.670Z,71.60
2023-04-18T10:48:58.820Z,71.26
2023-04-18T10:49:57.050Z,70.95
2023-04-18T10:50:57.267Z,70.54
2023-04-18T10:51:58.447Z,71.06
2023-04-18T10:52:57.644Z,71.26
2023-04-18T10:53:58.831Z,71.06
2023-04-18T10:54:59.133Z,71.33
2023-04-18T10:55:58.220Z,71.23
2023-04-18T10:56:58.474Z,71.43
2023-04-18T10:57:58.612Z,71.39
2023-04-18T10:58:58.807Z,71.77
2023-04-18T10:59:57.956Z,72.75
2023-04-18T11:00:58.227Z,71.23
2023-04-18T11:01:58.435Z,70.21
2023-04-18T11:02:58.700Z,69.67
2023-04-18T11:03:58.893Z,68.85
2023-04-18T11:04:56.965Z,69.16
2023-04-18T11:05:57.133Z,68.65
2023-04-18T11:06:57.435Z,67.77
2023-04-18T11:07:58.464Z,68.07
2023-04-18T11:08:58.813Z,68.58
2023-04-18T11:09:56.859Z,68.38
2023-04-18T11:10:57.039Z,68.18
2023-04-18T11:11:57.250Z,68.58
2023-04-18T11:12:57.464Z,68.18
2023-04-18T11:13:57.624Z,68.18
2023-04-18T11:14:56.782Z,68.88
2023-04-18T11:15:56.988Z,68.79
2023-04-18T11:16:57.211Z,68.58
2023-04-18T11:17:57.613Z,69.23
2023-04-18T11:18:58.568Z,69.43
2023-04-18T11:19:57.738Z,69.43
2023-04-18T11:20:57.318Z,69.63
2023-04-18T11:21:57.193Z,70.95
2023-04-18T11:22:58.354Z,70.24
2023-04-18T11:23:57.549Z,69.73
2023-04-18T11:24:57.737Z,69.23
2023-04-18T11:25:57.958Z,70.14
2023-04-18T11:26:58.188Z,70.55
2023-04-18T11:27:58.364Z,70.65
2023-04-18T11:28:57.602Z,70.10
2023-04-18T11:29:57.776Z,70.31
2023-04-18T11:30:57.967Z,70.18
2023-04-18T11:31:58.597Z,69.36
2023-04-18T11:32:57.740Z,67.91
2023-04-18T11:33:57.541Z,68.21
2023-04-18T11:34:57.669Z,68.41
2023-04-18T11:35:57.854Z,67.88
2023-04-18T11:36:57.062Z,67.16
2023-04-18T11:37:57.252Z,67.94
2023-04-18T11:38:57.385Z,67.74
2023-04-18T11:39:57.528Z,66.93
2023-04-18T11:40:57.707Z,66.80
2023-04-18T11:41:57.907Z,67.00
2023-04-18T11:42:58.047Z,67.47
2023-04-18T11:43:57.270Z,67.27
2023-04-18T11:44:56.412Z,66.63
2023-04-18T11:45:56.653Z,66.74
2023-04-18T11:46:56.746Z,66.23
2023-04-18T11:47:57.919Z,64.88
2023-04-18T11:48:58.049Z,65.18
2023-04-18T11:49:57.207Z,66.19
2023-04-18T11:50:56.395Z,65.18
2023-04-18T11:51:56.667Z,64.47
2023-04-18T11:52:56.773Z,63.96
2023-04-18T11:53:56.973Z,64.00
2023-04-18T11:54:56.224Z,65.62
2023-04-18T11:55:56.387Z,64.70
2023-04-18T11:56:56.524Z,64.94
2023-04-18T11:57:56.705Z,65.55
2023-04-18T11:58:56.925Z,66.56
2023-04-18T11:59:57.074Z,65.95
2023-04-18T12:00:56.211Z,66.05
2023-04-18T12:01:58.756Z,65.65
2023-04-18T12:02:56.765Z,65.34
2023-04-18T12:03:56.918Z,65.68
2023-04-18T12:04:56.425Z,66.19
2023-04-18T12:05:56.357Z,66.39
2023-04-18T12:06:56.332Z,66.90
2023-04-18T12:07:56.540Z,67.10
2023-04-18T12:08:56.721Z,67.64
2023-04-18T12:09:56.898Z,66.93
2023-04-18T12:10:56.054Z,66.83
2023-04-18T12:11:56.345Z,67.10
2023-04-18T12:12:56.456Z,66.72
2023-04-18T12:13:56.676Z,66.72
2023-04-18T12:14:55.848Z,66.83
2023-04-18T12:15:56.073Z,66.52
2023-04-18T12:16:56.262Z,66.32
2023-04-18T12:17:56.490Z,66.42
2023-04-18T12:18:56.672Z,66.93
2023-04-18T12:19:55.820Z,66.83
2023-04-18T12:20:56.990Z,66.39
2023-04-18T12:21:56.277Z,66.72
2023-04-18T12:22:56.456Z,66.72
2023-04-18T12:23:57.560Z,66.93
2023-04-18T12:24:56.741Z,67.13
2023-04-18T12:25:56.000Z,66.83
2023-04-18T12:26:56.172Z,66.72
2023-04-18T12:27:56.385Z,67.03
2023-04-18T12:28:56.531Z,67.64
2023-04-18T12:29:55.717Z,67.24
2023-04-18T12:30:55.920Z,66.83
2023-04-18T12:31:56.151Z,67.03
2023-04-18T12:32:57.332Z,67.50
2023-04-18T12:33:56.897Z,67.91
2023-04-18T12:34:55.665Z,67.41
2023-04-18T12:35:56.787Z,68.19
2023-04-18T12:36:56.004Z,67.78
2023-04-18T12:37:57.195Z,66.66
2023-04-18T12:38:56.437Z,66.77
2023-04-18T12:39:55.700Z,66.56
2023-04-18T12:40:56.752Z,66.66
2023-04-18T12:41:56.972Z,66.77
2023-04-18T12:42:56.199Z,66.56
2023-04-18T12:43:56.376Z,65.85
2023-04-18T12:44:56.482Z,65.45
2023-04-18T12:45:55.758Z,65.95
2023-04-18T12:46:55.970Z,66.05
2023-04-18T12:47:56.149Z,65.85
2023-04-18T12:48:56.290Z,66.16
2023-04-18T12:49:55.452Z,66.46
2023-04-18T12:50:55.622Z,66.13
2023-04-18T12:51:55.849Z,65.31
2023-04-18T12:52:56.012Z,65.11
2023-04-18T12:53:56.210Z,65.72